createdAt,value
2018-07-31T00:00:31.506Z,26.39
2018-07-31T00:01:31.081Z,26.26
2018-07-31T00:02:31.007Z,26.34
2018-07-31T00:03:31.022Z,26.16
2018-07-31T00:04:30.664Z,26.30
2018-07-31T00:05:30.688Z,26.16
2018-07-31T00:06:30.614Z,26.24
2018-07-31T00:07:30.683Z,26.10
2018-07-31T00:08:30.563Z,26.04
2018-07-31T00:09:30.561Z,26.04
2018-07-31T00:10:30.547Z,25.96
2018-07-31T00:11:30.503Z,25.88
2018-07-31T00:12:30.487Z,25.90
2018-07-31T00:13:30.469Z,25.93
2018-07-31T00:16:33.589Z,25.77
2018-07-31T00:17:33.936Z,25.81
2018-07-31T00:19:28.292Z,25.86
2018-07-31T00:20:28.134Z,25.75
2018-07-31T00:23:01.997Z,25.73
2018-07-31T00:24:02.014Z,25.68
2018-07-31T00:26:08.030Z,25.63
2018-07-31T00:27:07.966Z,25.55
2018-07-31T00:29:13.473Z,25.48
2018-07-31T00:30:13.554Z,25.46
2018-07-31T00:31:13.044Z,25.37
2018-07-31T00:32:13.215Z,25.38
2018-07-31T00:33:13.097Z,25.33
2018-07-31T00:34:12.826Z,25.30
2018-07-31T00:35:12.808Z,25.31
2018-07-31T00:36:12.772Z,25.36
2018-07-31T00:37:12.752Z,25.37
2018-07-31T00:38:12.727Z,25.26
2018-07-31T00:39:12.756Z,25.37
2018-07-31T00:40:12.681Z,25.27
2018-07-31T00:41:12.663Z,25.31
2018-07-31T00:42:12.648Z,25.31
2018-07-31T00:43:12.627Z,25.34
2018-07-31T00:44:12.603Z,25.26
2018-07-31T00:45:12.570Z,25.37
2018-07-31T00:46:12.547Z,25.31
2018-07-31T00:47:12.528Z,25.33
2018-07-31T00:48:12.507Z,25.37
2018-07-31T00:49:12.563Z,25.28
2018-07-31T00:50:12.465Z,25.34
2018-07-31T00:51:12.470Z,25.31
2018-07-31T00:52:12.411Z,25.33
2018-07-31T00:53:12.393Z,25.30
2018-07-31T00:54:12.371Z,25.22
2018-07-31T00:55:12.351Z,25.21
2018-07-31T00:56:12.335Z,25.22
2018-07-31T00:57:12.313Z,25.26
2018-07-31T00:58:12.363Z,25.22
2018-07-31T00:59:12.273Z,25.12
2018-07-31T01:00:12.242Z,25.16
2018-07-31T01:01:12.231Z,25.22
2018-07-31T01:02:12.201Z,25.12
2018-07-31T01:03:12.174Z,25.14
2018-07-31T01:04:12.153Z,25.16
2018-07-31T01:05:12.138Z,25.15
2018-07-31T01:06:12.124Z,25.03
2018-07-31T01:07:12.090Z,25.01
2018-07-31T01:08:12.074Z,25.04
2018-07-31T01:09:12.052Z,25.04
2018-07-31T01:10:12.023Z,24.96
2018-07-31T01:11:12.008Z,24.94
2018-07-31T01:12:12.013Z,24.94
2018-07-31T01:13:12.037Z,24.96
2018-07-31T01:14:11.929Z,24.93
2018-07-31T01:15:11.911Z,25.00
2018-07-31T01:16:11.894Z,24.90
2018-07-31T01:17:11.865Z,25.03
2018-07-31T01:18:11.853Z,25.03
2018-07-31T01:19:11.876Z,24.90
2018-07-31T01:20:11.886Z,24.91
2018-07-31T01:21:11.791Z,24.90
2018-07-31T01:22:11.754Z,24.86
2018-07-31T01:23:11.805Z,24.82
2018-07-31T01:24:11.714Z,24.79
2018-07-31T01:25:11.702Z,24.79
2018-07-31T01:26:11.662Z,24.81
2018-07-31T01:27:11.642Z,24.75
2018-07-31T01:28:11.679Z,24.79
2018-07-31T01:29:11.605Z,24.81
2018-07-31T01:30:11.607Z,24.79
2018-07-31T01:31:11.626Z,24.74
2018-07-31T01:32:11.533Z,24.74
2018-07-31T01:33:11.505Z,24.78
2018-07-31T01:34:11.492Z,24.76
2018-07-31T01:35:11.465Z,24.81
2018-07-31T01:36:11.443Z,24.81
2018-07-31T01:37:11.417Z,24.78
2018-07-31T01:38:11.482Z,24.86
2018-07-31T01:39:11.385Z,24.84
2018-07-31T01:40:11.432Z,24.79
2018-07-31T01:41:11.336Z,24.76
2018-07-31T01:42:11.309Z,24.78
2018-07-31T01:43:11.287Z,24.91
2018-07-31T01:44:11.258Z,24.79
2018-07-31T01:45:11.242Z,24.75
2018-07-31T01:46:11.218Z,24.71
2018-07-31T01:47:11.200Z,24.68
2018-07-31T01:48:11.181Z,24.71
2018-07-31T01:49:11.174Z,24.66
2018-07-31T01:50:11.129Z,24.60
2018-07-31T01:51:11.110Z,24.63
2018-07-31T01:52:11.086Z,24.63
2018-07-31T01:53:11.098Z,24.60
2018-07-31T01:54:11.047Z,24.60
2018-07-31T01:55:11.058Z,24.63
2018-07-31T01:56:11.086Z,24.60
2018-07-31T01:57:11.066Z,24.58
2018-07-31T01:58:11.020Z,24.55
2018-07-31T01:59:10.993Z,24.52
2018-07-31T02:00:10.915Z,24.52
2018-07-31T02:01:10.971Z,24.62
2018-07-31T02:02:10.914Z,24.52
2018-07-31T02:03:10.835Z,24.52
2018-07-31T02:04:10.816Z,24.58
2018-07-31T02:05:10.796Z,24.47
2018-07-31T02:06:10.828Z,24.44
2018-07-31T02:07:10.753Z,24.53
2018-07-31T02:08:10.737Z,24.56
2018-07-31T02:09:10.823Z,24.48
2018-07-31T02:10:10.724Z,24.58
2018-07-31T02:11:10.664Z,24.43
2018-07-31T02:12:10.647Z,24.38
2018-07-31T02:13:10.761Z,24.36
2018-07-31T02:14:10.599Z,24.36
2018-07-31T02:15:10.573Z,24.21
2018-07-31T02:16:10.562Z,24.26
2018-07-31T02:17:10.573Z,24.31
2018-07-31T02:18:10.529Z,24.25
2018-07-31T02:19:10.498Z,24.26
2018-07-31T02:20:10.487Z,24.28
2018-07-31T02:21:10.458Z,24.25
2018-07-31T02:22:10.417Z,24.28
2018-07-31T02:23:10.393Z,24.23
2018-07-31T02:24:10.360Z,24.28
2018-07-31T02:25:10.345Z,24.23
2018-07-31T02:26:10.333Z,24.40
2018-07-31T02:27:10.448Z,24.36
2018-07-31T02:28:10.339Z,24.37
2018-07-31T02:29:10.261Z,24.22
2018-07-31T02:30:10.266Z,24.37
2018-07-31T02:31:10.295Z,24.22
2018-07-31T02:32:10.194Z,24.22
2018-07-31T02:33:10.216Z,24.21
2018-07-31T02:34:10.178Z,24.15
2018-07-31T02:35:10.138Z,24.19
2018-07-31T02:36:10.103Z,24.10
2018-07-31T02:37:10.212Z,23.97
2018-07-31T02:38:10.046Z,24.01
2018-07-31T02:39:10.034Z,24.06
2018-07-31T02:40:10.046Z,24.07
2018-07-31T02:41:09.971Z,23.92
2018-07-31T02:42:09.951Z,23.98
2018-07-31T02:43:09.955Z,23.96
2018-07-31T02:44:09.944Z,24.03
2018-07-31T02:45:09.897Z,23.86
2018-07-31T02:46:09.871Z,23.91
2018-07-31T02:47:09.853Z,23.85
2018-07-31T02:48:09.818Z,23.91
2018-07-31T02:49:09.789Z,23.88
2018-07-31T02:50:09.773Z,23.88
2018-07-31T02:51:09.885Z,23.81
2018-07-31T02:52:09.726Z,23.86
2018-07-31T02:53:09.706Z,23.81
2018-07-31T02:54:09.794Z,23.79
2018-07-31T02:55:09.657Z,23.76
2018-07-31T02:56:09.632Z,23.79
2018-07-31T02:57:09.618Z,23.70
2018-07-31T02:58:09.734Z,23.71
2018-07-31T02:59:09.657Z,23.74
2018-07-31T03:00:09.610Z,23.73
2018-07-31T03:01:09.586Z,23.76
2018-07-31T03:02:09.497Z,23.76
2018-07-31T03:03:09.474Z,23.76
2018-07-31T03:04:09.468Z,23.92
2018-07-31T03:05:09.432Z,23.91
2018-07-31T03:06:09.399Z,23.88
2018-07-31T03:07:09.439Z,23.91
2018-07-31T03:08:09.395Z,23.94
2018-07-31T03:09:09.340Z,23.81
2018-07-31T03:10:09.321Z,23.79
2018-07-31T03:11:09.296Z,23.84
2018-07-31T03:12:09.260Z,23.85
2018-07-31T03:13:09.325Z,23.74
2018-07-31T03:14:09.240Z,23.71
2018-07-31T03:15:09.269Z,23.70
2018-07-31T03:16:09.181Z,23.67
2018-07-31T03:17:09.156Z,23.69
2018-07-31T03:18:09.211Z,23.70
2018-07-31T03:19:09.111Z,23.60
2018-07-31T03:20:09.084Z,23.64
2018-07-31T03:21:09.064Z,23.56
2018-07-31T03:22:09.041Z,23.63
2018-07-31T03:23:09.023Z,23.70
2018-07-31T03:24:08.993Z,23.61
2018-07-31T03:25:08.986Z,23.59
2018-07-31T03:26:08.941Z,23.63
2018-07-31T03:27:08.922Z,23.61
2018-07-31T03:28:08.937Z,23.59
2018-07-31T03:29:08.939Z,23.61
2018-07-31T03:30:08.860Z,23.61
2018-07-31T03:31:08.902Z,23.67
2018-07-31T03:32:08.806Z,23.64
2018-07-31T03:33:08.785Z,23.56
2018-07-31T03:34:08.764Z,23.60
2018-07-31T03:35:08.739Z,23.70
2018-07-31T03:36:08.719Z,23.70
2018-07-31T03:37:08.699Z,23.59
2018-07-31T03:38:08.732Z,23.56
2018-07-31T03:39:08.662Z,23.64
2018-07-31T03:40:08.620Z,23.60
2018-07-31T03:41:08.711Z,23.59
2018-07-31T03:42:08.586Z,23.55
2018-07-31T03:43:08.560Z,23.60
2018-07-31T03:44:08.562Z,23.56
2018-07-31T03:45:08.507Z,23.49
2018-07-31T03:46:08.489Z,23.45
2018-07-31T03:47:08.458Z,23.55
2018-07-31T03:48:08.443Z,23.55
2018-07-31T03:49:08.428Z,23.61
2018-07-31T03:50:08.479Z,23.69
2018-07-31T03:51:08.390Z,23.66
2018-07-31T03:52:08.359Z,23.67
2018-07-31T03:53:08.404Z,23.67
2018-07-31T03:54:08.301Z,23.59
2018-07-31T03:55:08.293Z,23.52
2018-07-31T03:56:08.280Z,23.48
2018-07-31T03:57:08.233Z,23.49
2018-07-31T03:58:08.227Z,23.46
2018-07-31T03:59:08.180Z,23.48
2018-07-31T04:00:08.303Z,23.44
2018-07-31T04:01:08.136Z,23.46
2018-07-31T04:02:08.171Z,23.48
2018-07-31T04:03:08.095Z,23.45
2018-07-31T04:04:08.066Z,23.46
2018-07-31T04:05:08.154Z,23.46
2018-07-31T04:06:08.061Z,23.54
2018-07-31T04:07:08.062Z,23.52
2018-07-31T04:08:07.977Z,23.51
2018-07-31T04:09:08.029Z,23.49
2018-07-31T04:10:07.926Z,23.56
2018-07-31T04:11:07.903Z,23.59
2018-07-31T04:12:07.881Z,23.51
2018-07-31T04:13:07.859Z,23.54
2018-07-31T04:14:07.839Z,23.46
2018-07-31T04:15:07.824Z,23.51
2018-07-31T04:16:26.483Z,23.52
2018-07-31T04:18:07.197Z,23.52
2018-07-31T04:19:06.643Z,23.48
2018-07-31T04:21:09.997Z,23.46
2018-07-31T04:22:08.984Z,23.45
2018-07-31T04:24:10.642Z,23.46
2018-07-31T04:25:10.688Z,23.44
2018-07-31T04:26:10.395Z,23.46
2018-07-31T04:27:31.530Z,23.41
2018-07-31T04:28:10.365Z,23.46
2018-07-31T04:29:10.062Z,23.48
2018-07-31T04:30:10.058Z,23.51
2018-07-31T04:33:12.063Z,23.60
2018-07-31T04:34:12.503Z,23.51
2018-07-31T04:36:33.534Z,23.64
2018-07-31T04:37:14.942Z,23.48
2018-07-31T04:39:19.147Z,23.70
2018-07-31T04:40:18.970Z,23.60
2018-07-31T04:42:26.023Z,23.61
2018-07-31T04:43:26.016Z,23.66
2018-07-31T04:45:31.795Z,23.60
2018-07-31T04:46:31.443Z,23.63
2018-07-31T04:48:35.163Z,23.59
2018-07-31T04:49:34.707Z,23.60
2018-07-31T04:51:37.022Z,23.69
2018-07-31T04:52:36.486Z,23.66
2018-07-31T04:54:43.288Z,23.78
2018-07-31T04:55:42.912Z,23.67
2018-07-31T04:57:42.247Z,23.67
2018-07-31T05:00:03.702Z,23.69
2018-07-31T05:01:02.964Z,23.67
2018-07-31T05:02:58.335Z,23.79
2018-07-31T05:03:57.073Z,23.70
2018-07-31T05:06:05.689Z,23.71
2018-07-31T05:07:07.066Z,23.63
2018-07-31T05:09:27.245Z,23.61
2018-07-31T05:10:06.951Z,23.71
2018-07-31T05:12:09.169Z,23.69
2018-07-31T05:13:09.556Z,23.70
2018-07-31T05:16:58.523Z,23.96
2018-07-31T05:17:58.639Z,23.98
2018-07-31T05:20:08.001Z,23.98
2018-07-31T05:21:07.793Z,24.07
2018-07-31T05:23:14.512Z,24.11
2018-07-31T05:24:14.089Z,24.10
2018-07-31T05:26:24.652Z,24.19
2018-07-31T05:27:24.832Z,24.13
2018-07-31T05:29:29.122Z,24.10
2018-07-31T05:30:28.665Z,24.07
2018-07-31T05:32:34.619Z,24.07
2018-07-31T05:33:37.162Z,24.18
2018-07-31T05:34:33.541Z,24.10
2018-07-31T05:35:35.278Z,24.18
2018-07-31T05:36:33.217Z,24.15
2018-07-31T05:37:33.179Z,24.10
2018-07-31T05:38:33.202Z,24.07
2018-07-31T05:39:35.078Z,24.11
2018-07-31T05:40:33.093Z,24.21
2018-07-31T05:41:33.210Z,24.25
2018-07-31T05:42:33.376Z,24.22
2018-07-31T05:43:33.439Z,24.19
2018-07-31T05:44:49.320Z,24.16
2018-07-31T05:46:43.272Z,24.23
2018-07-31T05:47:42.684Z,24.37
2018-07-31T05:48:42.567Z,24.41
2018-07-31T05:49:42.714Z,24.51
2018-07-31T05:50:42.455Z,24.53
2018-07-31T05:51:45.193Z,24.59
2018-07-31T05:52:44.678Z,24.48
2018-07-31T05:54:01.594Z,24.58
2018-07-31T05:55:44.069Z,24.66
2018-07-31T05:56:43.813Z,24.56
2018-07-31T05:58:47.328Z,24.60
2018-07-31T05:59:46.071Z,24.60
2018-07-31T06:01:43.170Z,24.70
2018-07-31T06:02:42.821Z,24.70
2018-07-31T06:04:54.717Z,24.76
2018-07-31T06:05:52.819Z,24.78
2018-07-31T06:07:50.746Z,24.97
2018-07-31T06:08:50.898Z,24.94
2018-07-31T06:10:55.729Z,25.04
2018-07-31T06:11:55.569Z,25.06
2018-07-31T06:14:00.859Z,25.01
2018-07-31T06:15:00.963Z,25.03
2018-07-31T06:17:07.273Z,25.11
2018-07-31T06:18:06.729Z,25.16
2018-07-31T06:20:16.424Z,25.21
2018-07-31T06:21:16.112Z,25.22
2018-07-31T06:23:19.909Z,25.28
2018-07-31T06:24:19.893Z,25.30
2018-07-31T06:26:20.117Z,25.40
2018-07-31T06:27:20.252Z,25.38
2018-07-31T06:29:24.896Z,25.33
2018-07-31T06:30:24.877Z,25.36
2018-07-31T06:31:26.582Z,25.33
2018-07-31T06:32:24.677Z,25.43
2018-07-31T06:33:24.571Z,25.55
2018-07-31T06:34:24.566Z,25.56
2018-07-31T06:35:24.529Z,25.67
2018-07-31T06:36:26.343Z,25.66
2018-07-31T06:37:24.481Z,25.64
2018-07-31T06:38:24.463Z,25.64
2018-07-31T06:39:24.444Z,25.68
2018-07-31T06:40:24.472Z,25.61
2018-07-31T06:41:24.401Z,25.73
2018-07-31T06:42:24.364Z,25.70
2018-07-31T06:43:24.400Z,25.75
2018-07-31T06:44:24.358Z,25.75
2018-07-31T06:45:24.341Z,25.71
2018-07-31T06:46:24.293Z,25.74
2018-07-31T06:47:24.254Z,25.83
2018-07-31T06:48:24.242Z,25.81
2018-07-31T06:49:24.268Z,25.71
2018-07-31T06:50:24.201Z,25.77
2018-07-31T06:51:25.815Z,25.77
2018-07-31T06:52:24.149Z,25.74
2018-07-31T06:53:24.151Z,25.73
2018-07-31T06:54:24.103Z,25.85
2018-07-31T06:55:24.099Z,25.89
2018-07-31T06:56:24.073Z,25.88
2018-07-31T06:57:24.093Z,25.77
2018-07-31T06:58:24.019Z,25.86
2018-07-31T06:59:25.813Z,25.78
2018-07-31T07:00:23.986Z,25.86
2018-07-31T07:01:23.956Z,25.78
2018-07-31T07:02:25.808Z,25.88
2018-07-31T07:03:23.973Z,25.85
2018-07-31T07:04:23.922Z,25.89
2018-07-31T07:05:23.869Z,25.81
2018-07-31T07:06:23.850Z,25.71
2018-07-31T07:07:23.824Z,25.71
2018-07-31T07:08:23.816Z,25.77
2018-07-31T07:09:25.311Z,25.88
2018-07-31T07:10:23.769Z,25.89
2018-07-31T07:11:23.751Z,26.04
2018-07-31T07:12:23.713Z,26.00
2018-07-31T07:13:23.703Z,26.04
2018-07-31T07:14:23.687Z,26.21
2018-07-31T07:15:23.666Z,26.20
2018-07-31T07:16:23.701Z,26.19
2018-07-31T07:17:23.614Z,26.24
2018-07-31T07:18:23.658Z,26.43
2018-07-31T07:19:23.586Z,26.43
2018-07-31T07:20:23.653Z,26.56
2018-07-31T07:21:23.528Z,26.52
2018-07-31T07:22:25.311Z,26.58
2018-07-31T07:23:23.491Z,26.63
2018-07-31T07:24:23.461Z,26.65
2018-07-31T07:25:23.494Z,26.67
2018-07-31T07:26:23.451Z,26.70
2018-07-31T07:27:23.414Z,26.70
2018-07-31T07:28:24.331Z,26.67
2018-07-31T07:29:23.362Z,26.73
2018-07-31T07:30:36.170Z,26.83
2018-07-31T07:32:27.092Z,26.83
2018-07-31T07:33:27.373Z,26.80
2018-07-31T07:35:34.865Z,26.86
2018-07-31T07:36:34.917Z,26.97
2018-07-31T07:38:39.375Z,26.98
2018-07-31T07:39:38.981Z,27.05
2018-07-31T07:41:48.154Z,27.05
2018-07-31T07:42:47.930Z,27.13
2018-07-31T07:44:51.460Z,27.27
2018-07-31T07:45:51.051Z,27.35
2018-07-31T07:46:51.196Z,27.25
2018-07-31T07:47:51.102Z,27.34
2018-07-31T07:48:50.778Z,27.37
2018-07-31T07:49:50.703Z,27.45
2018-07-31T07:50:50.672Z,27.41
2018-07-31T07:51:50.811Z,27.52
2018-07-31T07:52:50.647Z,27.63
2018-07-31T07:53:50.696Z,27.76
2018-07-31T07:54:50.586Z,27.73
2018-07-31T07:55:50.568Z,27.76
2018-07-31T07:56:50.545Z,27.72
2018-07-31T07:57:50.606Z,27.80
2018-07-31T07:58:50.507Z,27.91
2018-07-31T07:59:50.486Z,27.90
2018-07-31T08:00:50.468Z,27.88
2018-07-31T08:01:50.453Z,27.90
2018-07-31T08:02:50.429Z,27.87
2018-07-31T08:03:50.427Z,27.76
2018-07-31T08:04:50.387Z,27.66
2018-07-31T08:05:50.481Z,27.50
2018-07-31T08:06:50.345Z,27.53
2018-07-31T08:07:50.331Z,27.54
2018-07-31T08:08:50.317Z,27.64
2018-07-31T08:09:50.335Z,27.70
2018-07-31T08:10:50.263Z,27.70
2018-07-31T08:11:50.244Z,27.72
2018-07-31T08:12:50.261Z,27.75
2018-07-31T08:13:50.212Z,27.75
2018-07-31T08:14:50.177Z,27.61
2018-07-31T08:15:50.222Z,27.68
2018-07-31T08:16:50.172Z,27.76
2018-07-31T08:18:08.897Z,27.78
2018-07-31T08:19:54.712Z,27.78
2018-07-31T08:20:55.056Z,27.90
2018-07-31T08:22:58.619Z,27.94
2018-07-31T08:23:58.608Z,27.82
2018-07-31T08:26:04.554Z,27.87
2018-07-31T08:27:04.477Z,27.95
2018-07-31T08:29:07.734Z,28.09
2018-07-31T08:30:07.750Z,28.12
2018-07-31T08:32:26.993Z,28.62
2018-07-31T08:33:26.800Z,28.68
2018-07-31T08:35:48.580Z,28.86
2018-07-31T08:36:48.538Z,29.07
2018-07-31T08:38:59.157Z,29.10
2018-07-31T08:39:59.059Z,29.31
2018-07-31T08:42:09.339Z,29.36
2018-07-31T08:43:09.445Z,29.41
2018-07-31T08:45:11.090Z,29.54
2018-07-31T08:46:11.027Z,29.56
2018-07-31T08:48:22.078Z,29.33
2018-07-31T08:49:21.761Z,29.43
2018-07-31T08:51:30.227Z,29.44
2018-07-31T08:52:30.154Z,29.33
2018-07-31T08:53:30.136Z,29.34
2018-07-31T08:54:29.945Z,29.19
2018-07-31T08:55:29.826Z,29.15
2018-07-31T08:56:29.821Z,29.19
2018-07-31T08:57:29.799Z,29.21
2018-07-31T08:58:29.778Z,29.31
2018-07-31T08:59:29.763Z,29.44
2018-07-31T09:00:29.742Z,29.34
2018-07-31T09:01:29.848Z,29.43
2018-07-31T09:02:29.696Z,29.55
2018-07-31T09:03:29.689Z,29.78
2018-07-31T09:04:29.670Z,29.93
2018-07-31T09:05:31.288Z,29.93
2018-07-31T09:06:29.625Z,30.02
2018-07-31T09:07:29.603Z,29.89
2018-07-31T09:08:29.702Z,30.08
2018-07-31T09:09:29.577Z,29.93
2018-07-31T09:10:29.544Z,30.08
2018-07-31T09:11:29.536Z,30.17
2018-07-31T09:12:31.035Z,30.24
2018-07-31T09:13:29.498Z,30.36
2018-07-31T09:14:29.467Z,30.52
2018-07-31T09:15:29.449Z,30.68
2018-07-31T09:16:29.436Z,30.80
2018-07-31T09:17:29.449Z,30.88
2018-07-31T09:18:29.401Z,30.90
2018-07-31T09:19:29.376Z,30.93
2018-07-31T09:20:29.360Z,31.17
2018-07-31T09:21:29.360Z,30.73
2018-07-31T09:22:29.330Z,30.65
2018-07-31T09:23:29.369Z,30.49
2018-07-31T09:24:29.314Z,30.59
2018-07-31T09:25:29.287Z,30.71
2018-07-31T09:26:29.253Z,30.75
2018-07-31T09:27:29.239Z,30.53
2018-07-31T09:28:29.219Z,30.60
2018-07-31T09:29:29.203Z,30.51
2018-07-31T09:30:29.262Z,30.77
2018-07-31T09:31:29.174Z,30.77
2018-07-31T09:32:29.148Z,30.52
2018-07-31T09:33:29.141Z,30.49
2018-07-31T09:34:29.119Z,30.55
2018-07-31T09:35:29.188Z,30.51
2018-07-31T09:36:29.141Z,30.58
2018-07-31T09:37:29.053Z,30.40
2018-07-31T09:38:29.046Z,30.64
2018-07-31T09:39:29.025Z,30.52
2018-07-31T09:40:29.006Z,30.62
2018-07-31T09:41:28.989Z,30.67
2018-07-31T09:42:28.979Z,30.62
2018-07-31T09:43:28.960Z,30.51
2018-07-31T09:44:28.935Z,30.48
2018-07-31T09:45:28.916Z,30.48
2018-07-31T09:46:28.892Z,30.51
2018-07-31T09:47:28.889Z,30.62
2018-07-31T09:48:28.898Z,30.48
2018-07-31T09:49:28.847Z,30.45
2018-07-31T09:50:28.827Z,30.21
2018-07-31T09:51:28.815Z,30.28
2018-07-31T09:52:28.829Z,30.46
2018-07-31T09:53:28.769Z,30.45
2018-07-31T09:54:28.753Z,30.36
2018-07-31T09:55:28.746Z,30.39
2018-07-31T09:56:28.716Z,30.52
2018-07-31T09:57:28.694Z,30.35
2018-07-31T09:58:29.356Z,30.53
2018-07-31T09:59:28.684Z,30.46
2018-07-31T10:00:28.636Z,30.49
2018-07-31T10:03:29.150Z,30.13
2018-07-31T10:04:29.152Z,30.14
2018-07-31T10:06:31.906Z,30.14
2018-07-31T10:07:31.884Z,30.40
2018-07-31T10:09:35.073Z,30.58
2018-07-31T10:10:35.048Z,30.78
2018-07-31T10:12:35.454Z,30.67
2018-07-31T10:13:35.236Z,30.89
2018-07-31T10:15:39.423Z,31.05
2018-07-31T10:16:40.011Z,30.96
2018-07-31T10:18:50.058Z,31.01
2018-07-31T10:19:49.803Z,30.82
2018-07-31T10:21:53.687Z,31.15
2018-07-31T10:22:52.874Z,31.15
2018-07-31T10:24:58.727Z,30.85
2018-07-31T10:25:58.960Z,30.60
2018-07-31T10:28:02.517Z,30.71
2018-07-31T10:29:02.692Z,30.86
2018-07-31T10:31:18.427Z,30.70
2018-07-31T10:32:18.351Z,30.88
2018-07-31T10:34:21.221Z,30.90
2018-07-31T10:35:21.156Z,31.15
2018-07-31T10:37:26.229Z,30.62
2018-07-31T10:38:25.705Z,30.48
2018-07-31T10:40:30.122Z,30.58
2018-07-31T10:41:30.131Z,30.93
2018-07-31T10:43:34.313Z,31.10
2018-07-31T10:44:34.537Z,31.23
2018-07-31T10:46:50.501Z,31.38
2018-07-31T10:47:50.166Z,31.46
2018-07-31T10:49:56.220Z,31.75
2018-07-31T10:50:55.957Z,31.81
2018-07-31T10:53:01.913Z,31.87
2018-07-31T10:54:01.801Z,31.67
2018-07-31T10:56:06.464Z,31.45
2018-07-31T10:57:06.090Z,31.54
2018-07-31T10:59:09.114Z,31.29
2018-07-31T11:00:09.036Z,31.48
2018-07-31T11:02:13.538Z,31.42
2018-07-31T11:03:13.468Z,31.81
2018-07-31T11:05:19.381Z,31.37
2018-07-31T11:06:19.303Z,31.52
2018-07-31T11:09:02.954Z,32.01
2018-07-31T11:09:29.583Z,32.13
2018-07-31T11:11:32.451Z,32.23
2018-07-31T11:12:32.454Z,32.33
2018-07-31T11:14:36.195Z,32.26
2018-07-31T11:15:36.116Z,31.99
2018-07-31T11:17:42.136Z,31.76
2018-07-31T11:18:41.875Z,31.79
2018-07-31T11:19:41.943Z,31.70
2018-07-31T11:20:41.753Z,31.64
2018-07-31T11:21:41.734Z,31.37
2018-07-31T11:22:41.741Z,31.51
2018-07-31T11:23:41.687Z,31.56
2018-07-31T11:24:41.676Z,31.66
2018-07-31T11:25:41.666Z,31.78
2018-07-31T11:26:41.662Z,31.78
2018-07-31T11:27:41.629Z,31.86
2018-07-31T11:28:41.639Z,31.84
2018-07-31T11:29:41.588Z,31.99
2018-07-31T11:30:41.625Z,32.13
2018-07-31T11:31:41.562Z,32.19
2018-07-31T11:32:41.545Z,31.78
2018-07-31T11:33:41.528Z,31.49
2018-07-31T11:34:41.523Z,31.46
2018-07-31T11:35:41.512Z,31.27
2018-07-31T11:36:41.463Z,31.46
2018-07-31T11:37:41.454Z,31.17
2018-07-31T11:38:41.447Z,31.87
2018-07-31T11:39:41.430Z,32.95
2018-07-31T11:40:41.401Z,32.91
2018-07-31T11:41:41.382Z,33.52
2018-07-31T11:42:41.363Z,33.76
2018-07-31T11:43:41.345Z,32.75
2018-07-31T11:45:01.070Z,32.70
2018-07-31T11:47:04.196Z,33.92
2018-07-31T11:48:04.118Z,34.63
2018-07-31T11:50:10.035Z,34.72
2018-07-31T11:51:10.126Z,34.90
2018-07-31T11:53:14.322Z,35.39
2018-07-31T11:54:14.325Z,35.07
2018-07-31T11:56:18.715Z,34.72
2018-07-31T11:57:18.877Z,34.70
2018-07-31T11:59:23.248Z,33.14
2018-07-31T12:00:23.133Z,32.80
2018-07-31T12:02:36.002Z,32.63
2018-07-31T12:03:35.974Z,32.87
2018-07-31T12:05:39.038Z,32.82
2018-07-31T12:06:38.936Z,32.36
2018-07-31T12:08:40.252Z,32.09
2018-07-31T12:09:40.149Z,31.97
2018-07-31T12:11:36.079Z,32.08
2018-07-31T12:12:36.070Z,32.05
2018-07-31T12:14:44.092Z,31.99
2018-07-31T12:15:43.990Z,32.23
2018-07-31T12:17:51.858Z,32.28
2018-07-31T12:18:51.860Z,32.35
2018-07-31T12:21:02.131Z,32.14
2018-07-31T12:22:02.090Z,32.21
2018-07-31T12:24:24.121Z,32.91
2018-07-31T12:25:24.020Z,33.98
2018-07-31T12:27:28.278Z,34.35
2018-07-31T12:28:28.313Z,34.50
2018-07-31T12:30:25.418Z,34.75
2018-07-31T12:31:25.300Z,34.04
2018-07-31T12:33:30.871Z,34.30
2018-07-31T12:34:29.181Z,33.24
2018-07-31T12:36:30.880Z,34.06
2018-07-31T12:37:30.654Z,34.45
2018-07-31T12:39:25.672Z,35.05
2018-07-31T12:40:25.674Z,35.51
2018-07-31T12:42:53.446Z,35.42
2018-07-31T12:43:53.320Z,35.05
2018-07-31T12:45:50.196Z,34.53
2018-07-31T12:46:50.268Z,34.85
2018-07-31T12:48:55.289Z,33.22
2018-07-31T12:49:54.584Z,32.83
2018-07-31T12:51:59.813Z,33.44
2018-07-31T12:52:59.630Z,34.07
2018-07-31T12:55:10.063Z,34.67
2018-07-31T12:56:09.844Z,35.02
2018-07-31T12:58:13.632Z,35.83
2018-07-31T12:59:13.314Z,35.98
2018-07-31T13:01:21.529Z,34.92
2018-07-31T13:02:21.162Z,34.95
2018-07-31T13:04:24.458Z,33.73
2018-07-31T13:05:24.441Z,33.36
2018-07-31T13:07:58.294Z,32.75
2018-07-31T13:08:28.076Z,33.74
2018-07-31T13:10:53.054Z,33.04
2018-07-31T13:13:23.570Z,33.67
2018-07-31T13:14:23.838Z,34.26
2018-07-31T13:16:27.170Z,33.45
2018-07-31T13:17:27.722Z,33.32
2018-07-31T13:19:33.183Z,32.72
2018-07-31T13:20:32.665Z,33.55
2018-07-31T13:22:36.955Z,34.60
2018-07-31T13:23:36.966Z,35.13
2018-07-31T13:25:41.050Z,35.65
2018-07-31T13:26:40.327Z,35.70
2018-07-31T13:28:44.942Z,33.30
2018-07-31T13:29:44.773Z,32.63
2018-07-31T13:31:44.663Z,32.31
2018-07-31T13:32:44.777Z,31.71
2018-07-31T13:34:49.554Z,31.95
2018-07-31T13:35:49.179Z,32.09
2018-07-31T13:37:54.455Z,33.51
2018-07-31T13:38:54.062Z,33.64
2018-07-31T13:40:58.463Z,34.45
2018-07-31T13:41:58.210Z,35.39
2018-07-31T13:44:01.268Z,36.04
2018-07-31T13:45:00.959Z,36.57
2018-07-31T13:46:00.824Z,36.88
2018-07-31T13:47:00.412Z,35.02
2018-07-31T13:48:00.413Z,34.57
2018-07-31T13:49:00.390Z,33.93
2018-07-31T13:50:00.383Z,34.83
2018-07-31T13:51:00.370Z,35.04
2018-07-31T13:52:00.348Z,35.72
2018-07-31T13:53:00.411Z,36.02
2018-07-31T13:54:00.359Z,36.14
2018-07-31T13:55:00.353Z,36.60
2018-07-31T13:56:00.366Z,36.93
2018-07-31T13:57:00.297Z,36.57
2018-07-31T13:58:00.291Z,36.30
2018-07-31T13:59:00.281Z,36.36
2018-07-31T14:00:00.306Z,36.03
2018-07-31T14:01:00.253Z,36.09
2018-07-31T14:02:00.255Z,36.33
2018-07-31T14:03:00.240Z,36.47
2018-07-31T14:04:00.222Z,36.27
2018-07-31T14:05:00.216Z,36.66
2018-07-31T14:06:00.204Z,35.88
2018-07-31T14:07:00.204Z,35.91
2018-07-31T14:08:00.189Z,36.35
2018-07-31T14:09:00.177Z,34.22
2018-07-31T14:10:00.165Z,34.08
2018-07-31T14:11:00.159Z,34.18
2018-07-31T14:12:00.139Z,33.82
2018-07-31T14:13:00.141Z,34.13
2018-07-31T14:14:00.121Z,35.17
2018-07-31T14:15:00.115Z,35.95
2018-07-31T14:16:00.097Z,36.56
2018-07-31T14:17:00.098Z,37.17
2018-07-31T14:18:00.093Z,37.23
2018-07-31T14:19:00.075Z,37.07
2018-07-31T14:20:00.060Z,36.03
2018-07-31T14:21:00.068Z,37.08
2018-07-31T14:22:00.089Z,37.03
2018-07-31T14:23:00.023Z,37.38
2018-07-31T14:24:00.021Z,37.77
2018-07-31T14:25:00.016Z,37.30
2018-07-31T14:26:00.002Z,37.07
2018-07-31T14:26:59.994Z,36.36
2018-07-31T14:27:59.984Z,35.58
2018-07-31T14:28:59.968Z,36.52
2018-07-31T14:29:59.974Z,36.74
2018-07-31T14:30:59.959Z,37.03
2018-07-31T14:31:59.959Z,37.26
2018-07-31T14:32:59.938Z,37.38
2018-07-31T14:34:02.928Z,35.51
2018-07-31T14:34:59.918Z,34.98
2018-07-31T14:35:59.918Z,35.97
2018-07-31T14:36:59.951Z,35.79
2018-07-31T14:37:59.901Z,35.84
2018-07-31T14:38:59.883Z,36.60
2018-07-31T14:39:59.880Z,36.75
2018-07-31T14:40:59.862Z,36.96
2018-07-31T14:41:59.863Z,37.08
2018-07-31T14:42:59.870Z,36.79
2018-07-31T14:43:59.848Z,37.31
2018-07-31T14:44:59.847Z,36.09
2018-07-31T14:45:59.823Z,35.91
2018-07-31T14:46:59.815Z,36.19
2018-07-31T14:47:59.803Z,34.72
2018-07-31T14:48:59.811Z,33.69
2018-07-31T14:49:59.791Z,34.16
2018-07-31T14:50:59.791Z,35.36
2018-07-31T14:51:59.812Z,35.72
2018-07-31T14:52:59.764Z,35.94
2018-07-31T14:53:59.816Z,36.02
2018-07-31T14:54:59.746Z,35.54
2018-07-31T14:56:01.335Z,35.46
2018-07-31T14:56:59.743Z,35.53
2018-07-31T14:57:59.776Z,35.83
2018-07-31T14:59:01.431Z,35.72
2018-07-31T14:59:59.766Z,36.60
2018-07-31T15:00:59.697Z,36.76
2018-07-31T15:01:59.692Z,36.41
2018-07-31T15:02:59.698Z,36.86
2018-07-31T15:03:59.679Z,36.23
2018-07-31T15:04:59.662Z,37.01
2018-07-31T15:05:59.654Z,37.31
2018-07-31T15:06:59.645Z,36.79
2018-07-31T15:07:59.730Z,36.75
2018-07-31T15:08:59.683Z,36.63
2018-07-31T15:11:36.664Z,37.38